createdAt,value
2019-03-16T00:01:19.966Z,11.43
2019-03-16T00:03:49.090Z,6.40
2019-03-16T00:06:17.614Z,8.93
2019-03-16T00:08:46.308Z,6.07
2019-03-16T00:11:15.513Z,7.17
2019-03-16T00:13:46.974Z,7.63
2019-03-16T00:16:16.732Z,11.93
2019-03-16T00:18:46.707Z,8.70
2019-03-16T00:21:16.991Z,9.50
2019-03-16T00:23:45.793Z,7.13
2019-03-16T00:26:18.045Z,8.20
2019-03-16T00:28:46.928Z,7.67
2019-03-16T00:31:25.157Z,9.57
2019-03-16T00:33:53.689Z,6.77
2019-03-16T00:36:22.183Z,6.20
2019-03-16T00:38:50.642Z,6.63
2019-03-16T00:41:19.506Z,6.17
2019-03-16T00:43:48.100Z,7.20
2019-03-16T00:46:16.743Z,8.20
2019-03-16T00:48:46.782Z,7.90
2019-03-16T00:51:19.086Z,6.23
2019-03-16T00:53:47.549Z,7.83
2019-03-16T00:56:15.969Z,10.67
2019-03-16T00:58:45.791Z,11.27
2019-03-16T01:01:16.785Z,9.20
2019-03-16T01:03:47.373Z,11.43
2019-03-16T01:06:15.966Z,8.93
2019-03-16T01:08:46.298Z,5.07
2019-03-16T01:11:16.901Z,9.67
2019-03-16T01:13:48.018Z,10.23
2019-03-16T01:16:17.226Z,9.03
2019-03-16T01:18:46.340Z,6.93
2019-03-16T01:21:16.839Z,8.43
2019-03-16T01:23:47.996Z,9.27
2019-03-16T01:26:16.838Z,10.13
2019-03-16T01:28:45.832Z,9.03
2019-03-16T01:31:16.083Z,9.50
2019-03-16T01:33:50.771Z,6.80
2019-03-16T01:36:19.603Z,6.13
2019-03-16T01:38:48.069Z,8.87
2019-03-16T01:41:16.549Z,3.10
2019-03-16T01:43:47.239Z,6.90
2019-03-16T01:46:15.976Z,10.47
2019-03-16T01:48:45.748Z,10.07
2019-03-16T01:51:15.600Z,10.17
2019-03-16T01:53:46.454Z,9.60
2019-03-16T01:56:17.305Z,8.57
2019-03-16T01:58:46.935Z,5.87
2019-03-16T02:01:16.668Z,9.67
2019-03-16T02:03:46.472Z,5.57
2019-03-16T02:06:16.693Z,10.90
2019-03-16T02:08:47.188Z,8.10
2019-03-16T02:11:16.489Z,8.70
2019-03-16T02:13:46.437Z,10.00
2019-03-16T02:16:27.857Z,7.70
2019-03-16T02:18:56.634Z,8.60
2019-03-16T02:21:25.519Z,9.17
2019-03-16T02:23:53.919Z,6.20
2019-03-16T02:26:24.803Z,9.40
2019-03-16T02:28:53.311Z,7.67
2019-03-16T02:31:21.830Z,8.27
2019-03-16T02:33:50.721Z,5.17
2019-03-16T02:36:21.402Z,6.33
2019-03-16T02:38:50.224Z,6.20
2019-03-16T02:41:18.809Z,6.10
2019-03-16T02:43:49.177Z,3.77
2019-03-16T02:46:18.726Z,5.73
2019-03-16T02:48:47.313Z,7.33
2019-03-16T02:51:17.021Z,6.80
2019-03-16T02:53:47.015Z,5.43
2019-03-16T02:56:18.421Z,4.57
2019-03-16T02:58:47.049Z,5.27
2019-03-16T03:01:17.166Z,7.53
2019-03-16T03:03:46.864Z,9.30
2019-03-16T03:06:19.947Z,5.80
2019-03-16T03:08:48.460Z,6.23
2019-03-16T03:11:17.830Z,5.10
2019-03-16T03:13:46.265Z,5.30
2019-03-16T03:16:16.797Z,5.43
2019-03-16T03:18:49.554Z,5.80
2019-03-16T03:21:17.158Z,5.20
2019-03-16T03:23:47.264Z,3.20
2019-03-16T03:26:17.931Z,7.10
2019-03-16T03:28:47.241Z,4.33
2019-03-16T03:31:17.183Z,9.10
2019-03-16T03:34:00.197Z,5.73
2019-03-16T03:36:17.794Z,10.37
2019-03-16T03:38:47.607Z,11.13
2019-03-16T03:41:16.469Z,9.60
2019-03-16T03:43:46.393Z,10.17
2019-03-16T03:46:16.481Z,17.73
2019-03-16T03:48:46.401Z,11.13
2019-03-16T03:51:17.410Z,15.30
2019-03-16T03:53:47.179Z,15.07
2019-03-16T03:56:24.383Z,11.73
2019-03-16T03:58:53.120Z,14.93
2019-03-16T04:01:21.707Z,14.60
2019-03-16T04:03:50.240Z,17.87
2019-03-16T04:06:18.748Z,11.07
2019-03-16T04:08:47.277Z,21.77
2019-03-16T04:11:16.443Z,14.73
2019-03-16T04:13:45.938Z,12.90
2019-03-16T04:16:16.410Z,20.43
2019-03-16T04:18:46.050Z,19.00
2019-03-16T04:21:15.528Z,14.43
2019-03-16T04:23:45.931Z,20.27
2019-03-16T04:26:15.739Z,22.43
2019-03-16T04:28:45.438Z,25.67
2019-03-16T04:31:14.877Z,14.57
2019-03-16T04:33:45.424Z,17.77
2019-03-16T04:36:14.924Z,20.00
2019-03-16T04:38:45.288Z,17.57
2019-03-16T04:41:16.134Z,17.13
2019-03-16T04:43:45.854Z,15.47
2019-03-16T04:46:16.154Z,15.97
2019-03-16T04:48:45.517Z,18.73
2019-03-16T04:51:16.053Z,17.80
2019-03-16T04:53:45.948Z,10.67
2019-03-16T04:56:16.423Z,14.63
2019-03-16T04:58:46.527Z,20.87
2019-03-16T05:01:16.019Z,15.40
2019-03-16T05:03:46.531Z,16.57
2019-03-16T05:06:16.893Z,13.63
2019-03-16T05:08:46.586Z,12.43
2019-03-16T05:11:17.605Z,14.27
2019-03-16T05:13:46.636Z,16.73
2019-03-16T05:16:16.516Z,16.37
2019-03-16T05:18:54.720Z,13.53
2019-03-16T05:21:23.236Z,13.70
2019-03-16T05:23:52.026Z,14.20
2019-03-16T05:26:20.464Z,11.83
2019-03-16T05:28:48.918Z,12.80
2019-03-16T05:31:17.491Z,15.27
2019-03-16T05:33:46.338Z,14.47
2019-03-16T05:36:16.891Z,13.40
2019-03-16T05:38:46.062Z,9.77
2019-03-16T05:41:15.322Z,14.13
2019-03-16T05:43:46.056Z,17.10
2019-03-16T05:46:15.563Z,16.40
2019-03-16T05:48:46.566Z,8.87
2019-03-16T05:51:16.115Z,13.57
2019-03-16T05:53:45.983Z,13.67
2019-03-16T05:56:15.387Z,11.83
2019-03-16T05:58:45.380Z,13.50
2019-03-16T06:01:16.541Z,13.70
2019-03-16T06:03:48.167Z,14.33
2019-03-16T06:06:27.529Z,7.50
2019-03-16T06:08:59.100Z,10.20
2019-03-16T06:11:31.464Z,9.47
2019-03-16T06:14:07.867Z,11.70
2019-03-16T06:16:55.997Z,13.47
2019-03-16T06:19:24.518Z,12.57
2019-03-16T06:21:52.968Z,7.57
2019-03-16T06:24:21.400Z,10.63
2019-03-16T06:26:49.845Z,7.10
2019-03-16T06:29:18.610Z,11.90
2019-03-16T06:31:47.248Z,8.30
2019-03-16T06:34:15.798Z,12.83
2019-03-16T06:36:45.503Z,7.10
2019-03-16T06:39:19.498Z,6.77
2019-03-16T06:41:48.863Z,7.70
2019-03-16T06:44:17.540Z,6.07
2019-03-16T06:46:45.967Z,2.90
2019-03-16T06:49:15.772Z,5.37
2019-03-16T06:51:46.652Z,6.70
2019-03-16T06:54:15.708Z,5.33
2019-03-16T06:56:50.056Z,9.37
2019-03-16T06:59:20.387Z,6.67
2019-03-16T07:01:48.804Z,2.63
2019-03-16T07:04:17.257Z,6.23
2019-03-16T07:06:45.796Z,34.20
2019-03-16T07:09:15.062Z,18.17
2019-03-16T07:11:46.179Z,7.43
2019-03-16T07:14:15.925Z,10.00
2019-03-16T07:16:46.682Z,5.87
2019-03-16T07:19:16.123Z,4.07
2019-03-16T07:21:45.136Z,10.23
2019-03-16T07:24:15.602Z,5.67
2019-03-16T07:26:45.203Z,4.70
2019-03-16T07:29:16.436Z,6.10
2019-03-16T07:31:46.736Z,8.40
2019-03-16T07:34:16.860Z,5.90
2019-03-16T07:36:46.265Z,8.77
2019-03-16T07:39:15.940Z,4.17
2019-03-16T07:41:46.283Z,4.67
2019-03-16T07:44:16.242Z,4.43
2019-03-16T07:46:45.068Z,6.43
2019-03-16T07:49:16.269Z,3.50
2019-03-16T07:51:45.722Z,4.70
2019-03-16T07:54:16.146Z,5.43
2019-03-16T07:56:45.456Z,3.60
2019-03-16T07:59:15.404Z,4.43
2019-03-16T08:01:44.897Z,3.17
2019-03-16T08:04:15.480Z,2.17
2019-03-16T08:06:45.325Z,2.07
2019-03-16T08:09:15.389Z,3.17
2019-03-16T08:11:45.909Z,3.30
2019-03-16T08:14:43.309Z,4.60
2019-03-16T08:17:23.796Z,4.13
2019-03-16T08:19:52.806Z,4.00
2019-03-16T08:22:21.238Z,3.83
2019-03-16T08:24:49.670Z,3.37
2019-03-16T08:27:18.125Z,5.00
2019-03-16T08:29:46.556Z,2.17
2019-03-16T08:32:16.096Z,1.57
2019-03-16T08:34:45.504Z,1.53
2019-03-16T08:37:21.065Z,3.80
2019-03-16T08:39:49.496Z,2.43
2019-03-16T08:42:18.012Z,1.80
2019-03-16T08:44:48.541Z,1.40
2019-03-16T08:47:17.003Z,2.13
2019-03-16T08:49:46.069Z,2.80
2019-03-16T08:52:16.184Z,5.07
2019-03-16T08:54:46.242Z,3.23
2019-03-16T08:57:16.488Z,2.97
2019-03-16T08:59:46.300Z,1.83
2019-03-16T09:02:15.698Z,4.33
2019-03-16T09:04:46.578Z,3.90
2019-03-16T09:07:17.099Z,2.83
2019-03-16T09:09:47.088Z,1.87
2019-03-16T09:12:16.194Z,3.03
2019-03-16T09:14:46.444Z,2.60
2019-03-16T09:17:16.052Z,2.03
2019-03-16T09:19:45.814Z,3.13
2019-03-16T09:22:18.260Z,2.20
2019-03-16T09:24:46.711Z,2.57
2019-03-16T09:27:15.262Z,3.27
2019-03-16T09:29:45.400Z,2.73
2019-03-16T09:32:14.427Z,2.23
2019-03-16T09:34:48.237Z,2.57
2019-03-16T09:37:16.721Z,1.60
2019-03-16T09:39:45.200Z,2.07
2019-03-16T09:42:16.356Z,1.50
2019-03-16T09:44:46.275Z,1.27
2019-03-16T09:47:16.180Z,1.50
2019-03-16T09:49:46.392Z,3.37
2019-03-16T09:52:22.090Z,2.27
2019-03-16T09:54:50.548Z,1.60
2019-03-16T09:57:18.959Z,3.00
2019-03-16T09:59:47.399Z,1.37
2019-03-16T10:02:16.279Z,2.63
2019-03-16T10:08:19.737Z,1.80
2019-03-16T10:10:48.480Z,0.80
2019-03-16T10:13:16.943Z,1.63
2019-03-16T10:15:45.824Z,1.30
2019-03-16T10:18:15.731Z,2.30
2019-03-16T10:20:44.907Z,1.57
2019-03-16T10:23:14.998Z,1.10
2019-03-16T10:25:45.184Z,4.27
2019-03-16T10:28:15.941Z,1.20
2019-03-16T10:30:45.759Z,1.70
2019-03-16T10:33:15.817Z,1.30
2019-03-16T10:35:45.256Z,1.07
2019-03-16T10:38:14.879Z,1.20
2019-03-16T10:40:44.843Z,1.20
2019-03-16T10:43:15.428Z,2.13
2019-03-16T10:45:45.636Z,1.20
2019-03-16T10:48:16.076Z,1.97
2019-03-16T10:50:45.576Z,1.20
2019-03-16T10:53:15.738Z,0.80
2019-03-16T10:55:51.428Z,0.70
2019-03-16T10:58:19.865Z,0.80
2019-03-16T11:00:48.296Z,0.80
2019-03-16T11:03:17.178Z,0.87
2019-03-16T11:05:46.610Z,1.57
2019-03-16T11:08:15.614Z,1.00
2019-03-16T11:10:53.125Z,1.50
2019-03-16T11:13:21.617Z,1.20
2019-03-16T11:15:50.068Z,1.10
2019-03-16T11:18:19.762Z,0.80
2019-03-16T11:20:48.199Z,1.23
2019-03-16T11:23:16.701Z,1.57
2019-03-16T11:25:45.795Z,1.23
2019-03-16T11:28:16.212Z,1.20
2019-03-16T11:30:46.733Z,1.33
2019-03-16T11:33:18.087Z,1.40
2019-03-16T11:35:46.523Z,1.40
2019-03-16T11:38:16.679Z,1.20
2019-03-16T11:40:45.397Z,1.20
2019-03-16T11:43:16.020Z,1.27
2019-03-16T11:45:46.051Z,2.00
2019-03-16T11:48:16.710Z,1.00
2019-03-16T11:50:45.517Z,0.80
2019-03-16T11:53:16.243Z,1.30
2019-03-16T11:55:46.526Z,1.50
2019-03-16T11:58:15.722Z,1.27
2019-03-16T12:00:46.442Z,1.20
2019-03-16T12:03:20.816Z,1.30
2019-03-16T12:05:49.391Z,1.53
2019-03-16T12:08:18.136Z,3.33
2019-03-16T12:10:46.655Z,1.30
2019-03-16T12:13:18.006Z,1.17
2019-03-16T12:15:46.269Z,1.20
2019-03-16T12:18:15.383Z,1.37
2019-03-16T12:20:45.519Z,1.53
2019-03-16T12:23:41.807Z,1.47
2019-03-16T12:26:14.888Z,2.00
2019-03-16T12:28:46.631Z,1.10
2019-03-16T12:31:15.561Z,1.57
2019-03-16T12:33:46.392Z,1.97
2019-03-16T12:36:16.332Z,1.50
2019-03-16T12:38:46.353Z,1.40
2019-03-16T12:41:16.372Z,1.50
2019-03-16T12:43:47.315Z,2.83
2019-03-16T12:46:15.949Z,2.30
2019-03-16T12:48:46.427Z,1.10
2019-03-16T12:51:16.262Z,1.93
2019-03-16T12:53:45.919Z,1.27
2019-03-16T12:56:17.972Z,1.23
2019-03-16T12:58:46.995Z,1.83
2019-03-16T13:01:16.939Z,2.73
2019-03-16T13:03:46.360Z,1.53
2019-03-16T13:06:19.021Z,0.83
2019-03-16T13:08:46.657Z,0.90
2019-03-16T13:11:15.427Z,1.07
2019-03-16T13:13:45.438Z,1.17
2019-03-16T13:16:15.661Z,1.77
2019-03-16T13:18:56.663Z,1.17
2019-03-16T13:21:25.176Z,1.47
2019-03-16T13:23:53.788Z,1.30
2019-03-16T13:26:22.284Z,1.40
2019-03-16T13:28:50.835Z,1.50
2019-03-16T13:31:19.259Z,1.30
2019-03-16T13:33:47.828Z,1.63
2019-03-16T13:36:16.754Z,2.93
2019-03-16T13:38:46.173Z,1.30
2019-03-16T13:41:15.648Z,1.10
2019-03-16T13:43:46.568Z,1.37
2019-03-16T13:46:18.133Z,3.50
2019-03-16T13:48:47.137Z,3.40
2019-03-16T13:51:17.166Z,5.53
2019-03-16T13:53:46.163Z,2.63
2019-03-16T13:56:16.836Z,2.80
2019-03-16T13:58:47.129Z,2.17
2019-03-16T14:01:15.601Z,1.30
2019-03-16T14:03:46.109Z,1.73
2019-03-16T14:06:16.246Z,2.47
2019-03-16T14:08:45.020Z,2.10
2019-03-16T14:11:15.676Z,1.50
2019-03-16T14:13:46.233Z,1.70
2019-03-16T14:16:16.165Z,1.40
2019-03-16T14:18:45.291Z,4.83
2019-03-16T14:21:15.539Z,2.13
2019-03-16T14:26:46.521Z,1.87
2019-03-16T14:29:16.456Z,1.40
2019-03-16T14:31:45.720Z,1.87
2019-03-16T14:34:14.612Z,1.97
2019-03-16T14:36:44.890Z,1.83
2019-03-16T14:39:16.269Z,1.30
2019-03-16T14:41:45.827Z,2.77
2019-03-16T14:44:20.406Z,2.10
2019-03-16T14:46:48.913Z,2.80
2019-03-16T14:49:17.402Z,2.53
2019-03-16T14:51:45.964Z,2.20
2019-03-16T14:54:16.495Z,4.50
2019-03-16T14:56:45.390Z,2.33
2019-03-16T14:59:17.422Z,2.00
2019-03-16T15:01:45.931Z,1.20
2019-03-16T15:04:16.397Z,1.40
2019-03-16T15:06:45.313Z,2.00
2019-03-16T15:09:15.398Z,1.43
2019-03-16T15:11:46.508Z,3.00
2019-03-16T15:14:21.515Z,1.53
2019-03-16T15:16:54.797Z,3.00
2019-03-16T15:19:24.761Z,1.77
2019-03-16T15:21:53.266Z,1.77
2019-03-16T15:24:21.684Z,2.50
2019-03-16T15:26:50.120Z,3.27
2019-03-16T15:29:18.535Z,1.30
2019-03-16T15:31:47.051Z,5.00
2019-03-16T15:34:15.924Z,1.87
2019-03-16T15:36:46.613Z,1.97
2019-03-16T15:39:17.112Z,1.07
2019-03-16T15:41:46.531Z,3.23
2019-03-16T15:44:16.012Z,1.20
2019-03-16T15:46:46.575Z,2.63
2019-03-16T15:49:15.640Z,2.73
2019-03-16T15:51:45.980Z,2.57
2019-03-16T15:54:16.469Z,1.13
2019-03-16T15:56:45.564Z,1.30
2019-03-16T15:59:16.237Z,1.00
2019-03-16T16:01:46.018Z,1.10
2019-03-16T16:04:15.884Z,1.37
2019-03-16T16:06:47.566Z,1.00
2019-03-16T16:09:16.533Z,1.17
2019-03-16T16:11:45.977Z,1.27
2019-03-16T16:14:15.598Z,1.00
2019-03-16T16:16:45.088Z,1.00
2019-03-16T16:19:14.983Z,1.23
2019-03-16T16:21:44.946Z,1.67
2019-03-16T16:24:15.128Z,1.67
2019-03-16T16:26:46.134Z,1.27
2019-03-16T16:29:19.668Z,1.10
2019-03-16T16:31:48.177Z,1.03
2019-03-16T16:34:16.658Z,1.40
2019-03-16T16:36:45.719Z,1.40
2019-03-16T16:39:15.267Z,1.47
2019-03-16T16:41:45.388Z,1.40
2019-03-16T16:44:16.137Z,1.70
2019-03-16T16:46:46.022Z,1.53
2019-03-16T16:49:22.490Z,2.37
2019-03-16T16:51:51.233Z,1.60
2019-03-16T16:54:19.668Z,1.07
2019-03-16T16:56:48.118Z,1.23
2019-03-16T16:59:16.802Z,1.33
2019-03-16T17:01:46.039Z,1.87
2019-03-16T17:04:16.265Z,2.73
2019-03-16T17:06:45.262Z,1.20
2019-03-16T17:09:16.232Z,1.10
2019-03-16T17:11:46.098Z,1.23
2019-03-16T17:14:15.990Z,1.97
2019-03-16T17:16:46.076Z,1.83
2019-03-16T17:19:16.256Z,1.30
2019-03-16T17:21:45.660Z,1.10
2019-03-16T17:24:16.878Z,1.23
2019-03-16T17:26:46.563Z,1.20
2019-03-16T17:29:17.160Z,1.50
2019-03-16T17:31:45.804Z,2.00
2019-03-16T17:34:16.127Z,1.63
2019-03-16T17:36:46.209Z,1.73
2019-03-16T17:39:16.016Z,1.80
2019-03-16T17:41:45.058Z,1.20
2019-03-16T17:44:15.092Z,1.40
2019-03-16T17:46:45.232Z,1.43
2019-03-16T17:49:16.142Z,1.40
2019-03-16T17:51:45.496Z,2.80
2019-03-16T17:54:16.140Z,4.97
2019-03-16T17:56:46.211Z,3.03
2019-03-16T17:59:16.913Z,2.40
2019-03-16T18:01:54.646Z,3.67
2019-03-16T18:04:16.917Z,2.27
2019-03-16T18:06:51.944Z,1.63
2019-03-16T18:09:20.544Z,2.37
2019-03-16T18:11:48.967Z,3.83
2019-03-16T18:14:17.538Z,2.90
2019-03-16T18:16:46.036Z,2.53
2019-03-16T18:19:15.994Z,2.27
2019-03-16T18:21:46.273Z,3.17
2019-03-16T18:24:16.983Z,1.70
2019-03-16T18:26:52.266Z,1.67
2019-03-16T18:29:20.791Z,2.10
2019-03-16T18:31:49.220Z,3.17
2019-03-16T18:34:17.669Z,3.63
2019-03-16T18:36:46.208Z,3.27
2019-03-16T18:39:16.066Z,3.60
2019-03-16T18:41:45.462Z,5.43
2019-03-16T18:44:16.570Z,2.90
2019-03-16T18:46:46.140Z,3.73
2019-03-16T18:49:16.339Z,4.90
2019-03-16T18:51:45.300Z,4.20
2019-03-16T18:54:16.231Z,4.20
2019-03-16T18:57:07.571Z,2.97
2019-03-16T18:59:45.192Z,2.50
2019-03-16T19:02:27.981Z,1.77
2019-03-16T19:04:56.425Z,4.20
2019-03-16T19:07:24.839Z,1.80
2019-03-16T19:09:53.704Z,1.50
2019-03-16T19:12:22.300Z,1.87
2019-03-16T19:14:50.827Z,2.47
2019-03-16T19:17:19.373Z,2.70
2019-03-16T19:19:47.839Z,2.10
2019-03-16T19:22:16.308Z,2.70
2019-03-16T19:24:45.061Z,2.30
2019-03-16T19:27:38.856Z,1.97
2019-03-16T19:30:15.100Z,2.10
2019-03-16T19:32:44.587Z,2.20
2019-03-16T19:35:15.698Z,3.07
2019-03-16T19:37:44.984Z,2.93
2019-03-16T19:40:15.876Z,2.40
2019-03-16T19:42:47.029Z,3.00
2019-03-16T19:45:15.573Z,1.97
2019-03-16T19:47:44.855Z,1.90
2019-03-16T19:50:16.894Z,2.07
2019-03-16T19:52:45.542Z,3.73
2019-03-16T19:55:15.477Z,2.60
2019-03-16T19:57:45.545Z,2.37
2019-03-16T20:00:19.815Z,2.07
2019-03-16T20:02:51.599Z,1.83
2019-03-16T20:05:18.470Z,2.10
2019-03-16T20:07:47.754Z,1.80
2019-03-16T20:10:17.201Z,2.83
2019-03-16T20:12:45.928Z,1.80
2019-03-16T20:15:16.390Z,2.53
2019-03-16T20:17:45.654Z,2.57
2019-03-16T20:20:17.688Z,4.33
2019-03-16T20:22:46.158Z,46.50
2019-03-16T20:25:15.893Z,22.67
2019-03-16T20:27:46.281Z,3.60
2019-03-16T20:30:26.659Z,3.43
2019-03-16T20:33:03.002Z,2.77
2019-03-16T20:35:21.149Z,2.40
2019-03-16T20:37:49.600Z,2.50
2019-03-16T20:40:21.003Z,2.93
2019-03-16T20:42:49.533Z,2.67
2019-03-16T20:45:18.181Z,2.60
2019-03-16T20:47:47.256Z,4.37
2019-03-16T20:50:19.627Z,2.20
2019-03-16T20:52:48.128Z,2.40
2019-03-16T20:55:16.776Z,2.53
2019-03-16T20:57:45.427Z,2.90
2019-03-16T21:00:15.629Z,1.93
2019-03-16T21:02:44.363Z,2.23
2019-03-16T21:05:15.469Z,2.33
2019-03-16T21:07:44.864Z,1.93
2019-03-16T21:10:14.438Z,2.90
2019-03-16T21:12:45.306Z,2.40
2019-03-16T21:15:17.805Z,2.33
2019-03-16T21:17:46.320Z,2.40
2019-03-16T21:20:18.597Z,2.40
2019-03-16T21:22:47.228Z,2.03
2019-03-16T21:25:20.878Z,2.87
2019-03-16T21:27:49.323Z,2.90
2019-03-16T21:30:18.775Z,2.93
2019-03-16T21:32:47.224Z,3.03
2019-03-16T21:35:15.800Z,3.70
2019-03-16T21:37:44.942Z,2.00
2019-03-16T21:40:15.640Z,1.93
2019-03-16T21:42:45.520Z,2.50
2019-03-16T21:45:15.448Z,2.50
2019-03-16T21:47:44.727Z,3.80
2019-03-16T21:50:16.778Z,2.53
2019-03-16T21:52:46.764Z,3.80
2019-03-16T21:55:15.709Z,3.13
2019-03-16T21:57:45.861Z,2.40
2019-03-16T22:00:16.586Z,2.33
2019-03-16T22:02:45.239Z,2.70
2019-03-16T22:05:15.045Z,2.90
2019-03-16T22:07:46.242Z,2.10
2019-03-16T22:10:16.768Z,2.27
2019-03-16T22:12:46.011Z,2.30
2019-03-16T22:15:16.512Z,1.63
2019-03-16T22:17:46.686Z,2.30
2019-03-16T22:20:23.125Z,2.10
2019-03-16T22:22:51.557Z,2.27
2019-03-16T22:25:19.991Z,2.47
2019-03-16T22:27:51.408Z,2.27
2019-03-16T22:30:18.755Z,2.83
2019-03-16T22:32:47.187Z,3.07
2019-03-16T22:35:16.137Z,4.00
2019-03-16T22:37:45.568Z,2.70
2019-03-16T22:40:16.016Z,3.77
2019-03-16T22:42:45.704Z,6.60
2019-03-16T22:45:15.444Z,2.30
2019-03-16T22:47:46.049Z,4.60
2019-03-16T22:50:17.240Z,5.80
2019-03-16T22:52:45.824Z,2.90
2019-03-16T22:55:16.133Z,3.53
2019-03-16T22:57:45.699Z,2.73
2019-03-16T23:00:20.612Z,3.27
2019-03-16T23:02:49.053Z,5.33
2019-03-16T23:05:17.510Z,8.37
2019-03-16T23:07:46.709Z,4.30
2019-03-16T23:10:15.606Z,5.40
2019-03-16T23:12:46.228Z,3.60
2019-03-16T23:15:17.959Z,6.80
2019-03-16T23:17:47.099Z,6.50
2019-03-16T23:20:15.913Z,13.30
2019-03-16T23:22:45.740Z,4.03
2019-03-16T23:25:25.619Z,3.90
2019-03-16T23:27:54.598Z,5.43
2019-03-16T23:30:23.045Z,4.90
2019-03-16T23:32:51.465Z,7.67
2019-03-16T23:35:19.906Z,7.70
2019-03-16T23:37:48.299Z,4.73
2019-03-16T23:40:16.809Z,4.47
2019-03-16T23:42:46.948Z,5.63
2019-03-16T23:45:15.942Z,3.77
2019-03-16T23:47:46.249Z,7.83
2019-03-16T23:50:15.449Z,11.13
2019-03-16T23:52:46.893Z,9.37
2019-03-16T23:55:16.444Z,4.07
2019-03-16T23:57:47.019Z,5.00
